Time;durP1;ratioP1;P1;durP2;ratioP2;P2;SDS_P1;SDS_P2;PMS_P1;PMS_P2;Temp;Humidity;BMP_temperature;BMP_pressure;BME280_temperature;BME280_humidity;BME280_pressure;Samples;Min_cycle;Max_cycle;Signal;HPM_P1;HPM_P2
2023/11/27 00:02:04;;;;;;;;;;;;;;;0.51;100.00;98177.70;67551;1283;1016492;-70
2023/11/27 00:05:07;;;;;;;;;;;;;;;0.49;100.00;98187.71;67524;1283;1016425;-71
2023/11/27 00:08:09;;;;;;;;;;;;;;;0.54;100.00;98188.79;67557;1282;1016496;-70
2023/11/27 00:11:12;;;;;;;;;;;;;;;0.61;100.00;98195.63;67532;1283;1016330;-70
2023/11/27 00:14:14;;;;;;;;;;;;;;;0.47;100.00;98198.27;67505;1283;1016482;-70
2023/11/27 00:17:17;;;;;;;;;;;;;;;0.51;100.00;98197.32;67526;1282;1016225;-70
2023/11/27 00:20:19;;;;;;;;;;;;;;;0.39;100.00;98200.59;67532;1283;1016293;-69
2023/11/27 00:23:23;;;;;;;;;;;;;;;0.36;100.00;98202.23;67493;1283;1016411;-70
2023/11/27 00:26:25;;;;;;;;;;;;;;;0.46;100.00;98197.29;67549;1282;1016481;-70
2023/11/27 00:29:28;;;;;;;;;;;;;;;0.47;100.00;98195.70;67504;1283;1017586;-70
2023/11/27 00:32:31;;;;;;;;;;;;;;;0.46;100.00;98192.46;67514;1283;1019890;-70
2023/11/27 00:35:33;;;;;;;;;;;;;;;0.55;100.00;98188.23;67556;1283;1016393;-70
2023/11/27 00:38:37;;;;;;;;;;;;;;;0.41;100.00;98191.05;67503;1283;1016440;-70
2023/11/27 00:41:39;;;;;;;;;;;;;;;0.29;100.00;98184.02;67533;1283;1016427;-70
2023/11/27 00:44:43;;;;;;;;;;;;;;;0.32;100.00;98180.85;67496;1283;1018361;-70
2023/11/27 00:47:45;;;;;;;;;;;;;;;0.29;100.00;98175.92;67549;1283;1016454;-71
2023/11/27 00:50:48;;;;;;;;;;;;;;;0.26;100.00;98169.32;67506;1283;1016027;-70
2023/11/27 00:53:51;;;;;;;;;;;;;;;0.27;100.00;98174.44;67520;1283;1016449;-70
2023/11/27 00:56:53;;;;;;;;;;;;;;;0.34;100.00;98174.77;67511;1283;1016638;-70
2023/11/27 00:59:56;;;;;;;;;;;;;;;0.33;100.00;98179.42;67524;1283;1018650;-70
2023/11/27 01:02:58;;;;;;;;;;;;;;;0.36;100.00;98182.11;67517;1283;1016244;-70
2023/11/27 01:06:01;;;;;;;;;;;;;;;0.14;100.00;98175.02;67524;1283;1016263;-70
2023/11/27 01:09:06;;;;;;;;;;;;;;;0.05;100.00;98179.41;67530;1283;1016331;-69
2023/11/27 01:12:09;;;;;;;;;;;;;;;-0.04;100.00;98179.11;67503;1283;1016485;-70
2023/11/27 01:15:12;;;;;;;;;;;;;;;0.09;100.00;98173.60;67534;1283;1016041;-70
2023/11/27 01:18:14;;;;;;;;;;;;;;;0.07;100.00;98177.08;67498;1283;1016021;-70
2023/11/27 01:21:17;;;;;;;;;;;;;;;0.13;100.00;98174.69;67534;1283;1016330;-70
2023/11/27 01:24:20;;;;;;;;;;;;;;;0.11;100.00;98171.64;67529;1283;1016444;-70
2023/11/27 01:27:22;;;;;;;;;;;;;;;0.10;100.00;98168.41;67489;1283;1016409;-68
2023/11/27 01:30:25;;;;;;;;;;;;;;;0.09;100.00;98168.29;67547;1282;1016181;-70
2023/11/27 01:33:28;;;;;;;;;;;;;;;0.08;100.00;98164.16;67518;1283;1016491;-70
2023/11/27 01:36:30;;;;;;;;;;;;;;;0.10;100.00;98158.95;67503;1282;1016292;-70
2023/11/27 01:39:33;;;;;;;;;;;;;;;0.10;100.00;98155.16;67482;1283;1016509;-70
2023/11/27 01:42:35;;;;;;;;;;;;;;;0.27;100.00;98155.35;67508;1283;1016406;-69
2023/11/27 01:45:39;;;;;;;;;;;;;;;0.24;100.00;98151.50;67547;1282;1016369;-70
2023/11/27 01:48:43;;;;;;;;;;;;;;;0.25;100.00;98145.78;67463;1283;1016608;-70
2023/11/27 01:51:46;;;;;;;;;;;;;;;0.22;100.00;98145.39;67493;1282;1016878;-70
2023/11/27 01:54:48;;;;;;;;;;;;;;;0.22;100.00;98144.16;67517;1283;1018386;-70
2023/11/27 01:57:51;;;;;;;;;;;;;;;0.22;100.00;98135.73;67482;1282;1016315;-70
2023/11/27 02:00:53;;;;;;;;;;;;;;;0.18;100.00;98132.59;67494;1283;1016232;-70
2023/11/27 02:03:56;;;;;;;;;;;;;;;0.19;100.00;98132.21;67529;1283;1016351;-70
2023/11/27 02:06:58;;;;;;;;;;;;;;;0.19;100.00;98120.86;67501;1282;1016293;-69
2023/11/27 02:10:01;;;;;;;;;;;;;;;0.27;100.00;98123.20;67482;1283;1016414;-70
2023/11/27 02:13:04;;;;;;;;;;;;;;;0.28;100.00;98124.73;67513;1282;1016432;-71
2023/11/27 02:16:07;;;;;;;;;;;;;;;0.16;100.00;98121.80;67538;1283;1016131;-69
2023/11/27 02:19:10;;;;;;;;;;;;;;;0.26;100.00;98121.00;67475;1282;1017300;-70
2023/11/27 02:22:12;;;;;;;;;;;;;;;0.27;100.00;98124.22;67527;1282;1016478;-69
2023/11/27 02:25:15;;;;;;;;;;;;;;;0.19;100.00;98121.54;67516;1283;1016505;-69
2023/11/27 02:28:18;;;;;;;;;;;;;;;0.11;100.00;98120.09;67465;1283;1018447;-70
2023/11/27 02:31:20;;;;;;;;;;;;;;;0.19;100.00;98121.02;67536;1282;1016424;-70
2023/11/27 02:34:23;;;;;;;;;;;;;;;0.14;100.00;98117.22;67523;1283;1016450;-70
2023/11/27 02:37:25;;;;;;;;;;;;;;;0.16;100.00;98112.68;67474;1283;1016742;-70
2023/11/27 02:40:28;;;;;;;;;;;;;;;0.17;100.00;98110.77;67501;1283;1016389;-70
2023/11/27 02:43:31;;;;;;;;;;;;;;;0.23;100.00;98107.67;67483;1283;1016352;-70
2023/11/27 02:46:33;;;;;;;;;;;;;;;0.18;100.00;98105.91;67475;1282;1016363;-70
2023/11/27 02:49:36;;;;;;;;;;;;;;;0.12;100.00;98109.39;67487;1283;1016535;-70
2023/11/27 02:52:38;;;;;;;;;;;;;;;0.10;100.00;98109.44;67523;1283;1016287;-70
2023/11/27 02:55:41;;;;;;;;;;;;;;;0.12;100.00;98109.89;67485;1283;1016503;-69
2023/11/27 02:58:44;;;;;;;;;;;;;;;0.16;100.00;98105.47;67464;1283;1016440;-70
2023/11/27 03:01:46;;;;;;;;;;;;;;;0.16;100.00;98101.16;67521;1283;1015814;-70
2023/11/27 03:04:49;;;;;;;;;;;;;;;0.12;100.00;98103.17;67504;1283;1016461;-70
2023/11/27 03:07:52;;;;;;;;;;;;;;;-0.01;100.00;98104.27;67460;1283;1016465;-70
2023/11/27 03:10:56;;;;;;;;;;;;;;;-0.09;100.00;98105.02;67522;1283;1018066;-70
2023/11/27 03:13:59;;;;;;;;;;;;;;;-0.19;100.00;98105.83;67484;1283;1016380;-70
2023/11/27 03:17:02;;;;;;;;;;;;;;;-0.14;100.00;98102.77;67486;1282;1018940;-70
2023/11/27 03:20:06;;;;;;;;;;;;;;;-0.09;100.00;98098.30;64966;1282;6373939;-70
2023/11/27 03:23:17;;;;;;;;;;;;;;;-0.13;100.00;98097.21;67503;1282;1017781;-70
2023/11/27 03:26:19;;;;;;;;;;;;;;;-0.24;100.00;98095.48;67496;1282;1016499;-70
2023/11/27 03:29:22;;;;;;;;;;;;;;;-0.21;100.00;98098.83;67467;1283;1016532;-70
2023/11/27 03:32:24;;;;;;;;;;;;;;;-0.24;100.00;98094.62;67487;1282;1016369;-69
2023/11/27 03:35:27;;;;;;;;;;;;;;;-0.25;100.00;98100.69;67512;1283;1016049;-69
2023/11/27 03:38:29;;;;;;;;;;;;;;;-0.34;100.00;98095.09;67498;1283;1018072;-70
2023/11/27 03:41:32;;;;;;;;;;;;;;;-0.25;100.00;98095.34;67464;1282;1016369;-70
2023/11/27 03:44:34;;;;;;;;;;;;;;;-0.33;100.00;98088.85;67485;1283;1016442;-69
2023/11/27 03:47:37;;;;;;;;;;;;;;;-0.40;100.00;98092.86;67506;1283;1016202;-70
2023/11/27 03:50:40;;;;;;;;;;;;;;;-0.35;100.00;98091.33;67529;1282;1016395;-69
2023/11/27 03:53:42;;;;;;;;;;;;;;;-0.44;100.00;98093.81;67481;1283;1017535;-70
2023/11/27 03:56:45;;;;;;;;;;;;;;;-0.42;100.00;98093.75;67483;1282;1016165;-69
2023/11/27 03:59:48;;;;;;;;;;;;;;;-0.49;100.00;98087.25;67532;1283;1016355;-70
2023/11/27 04:02:51;;;;;;;;;;;;;;;-0.52;100.00;98086.66;67492;1282;1016275;-69
2023/11/27 04:05:54;;;;;;;;;;;;;;;-0.61;100.00;98081.05;67523;1283;1016230;-70
2023/11/27 04:08:56;;;;;;;;;;;;;;;-0.57;100.00;98078.72;67518;1283;1016465;-70
2023/11/27 04:11:59;;;;;;;;;;;;;;;-0.53;100.00;98075.86;67455;1283;1016479;-70
2023/11/27 04:15:04;;;;;;;;;;;;;;;-0.56;100.00;98079.20;67510;1282;1016771;-70
2023/11/27 04:18:06;;;;;;;;;;;;;;;-0.69;100.00;98077.67;67521;1282;1016216;-69
2023/11/27 04:21:10;;;;;;;;;;;;;;;-0.73;100.00;98081.55;67488;1283;1016484;-69
2023/11/27 04:24:12;;;;;;;;;;;;;;;-0.78;100.00;98091.98;67511;1283;1016384;-70
2023/11/27 04:27:15;;;;;;;;;;;;;;;-0.92;100.00;98091.34;67471;1283;1016385;-70
2023/11/27 04:30:17;;;;;;;;;;;;;;;-0.96;100.00;98097.60;67502;1282;1016460;-70
2023/11/27 04:33:22;;;;;;;;;;;;;;;-0.97;100.00;98094.72;67518;1283;1016515;-70
2023/11/27 04:36:25;;;;;;;;;;;;;;;-1.11;100.00;98096.80;67501;1282;1016447;-69
2023/11/27 04:39:27;;;;;;;;;;;;;;;-1.15;100.00;98096.91;67495;1283;1016423;-69
2023/11/27 04:42:32;;;;;;;;;;;;;;;-1.05;100.00;98093.73;67498;1283;1016310;-69
2023/11/27 04:45:38;;;;;;;;;;;;;;;-1.17;100.00;98090.79;67520;1283;1016154;-70
2023/11/27 04:48:40;;;;;;;;;;;;;;;-1.23;100.00;98095.89;67499;1282;1016263;-70
2023/11/27 04:51:43;;;;;;;;;;;;;;;-1.28;100.00;98096.02;67482;1282;1016437;-70
2023/11/27 04:54:46;;;;;;;;;;;;;;;-1.31;100.00;98094.71;67516;1283;1016388;-70
2023/11/27 04:57:48;;;;;;;;;;;;;;;-1.25;100.00;98092.67;67512;1282;1020092;-70
2023/11/27 05:00:51;;;;;;;;;;;;;;;-1.21;100.00;98091.23;67478;1283;1016455;-70
2023/11/27 05:03:55;;;;;;;;;;;;;;;-1.24;100.00;98090.26;67507;1283;1016597;-70
2023/11/27 05:06:58;;;;;;;;;;;;;;;-1.34;100.00;98086.39;67499;1282;1016161;-70
2023/11/27 05:10:00;;;;;;;;;;;;;;;-1.34;100.00;98084.67;67507;1282;1019549;-70
2023/11/27 05:13:03;;;;;;;;;;;;;;;-1.35;100.00;98084.71;67472;1282;1016396;-69
2023/11/27 05:16:05;;;;;;;;;;;;;;;-1.38;100.00;98083.23;67490;1283;1016415;-70
2023/11/27 05:19:08;;;;;;;;;;;;;;;-1.45;100.00;98081.00;67495;1283;1016202;-70
2023/11/27 05:22:11;;;;;;;;;;;;;;;-1.50;100.00;98075.64;67517;1283;1018551;-70
2023/11/27 05:25:13;;;;;;;;;;;;;;;-1.49;100.00;98076.81;67496;1283;1016437;-69
2023/11/27 05:28:16;;;;;;;;;;;;;;;-1.43;100.00;98070.33;67512;1283;1017915;-70
2023/11/27 05:31:19;;;;;;;;;;;;;;;-1.39;100.00;98072.44;67517;1283;1016307;-69
2023/11/27 05:34:21;;;;;;;;;;;;;;;-1.34;100.00;98069.07;67495;1282;1016409;-70
2023/11/27 05:37:24;;;;;;;;;;;;;;;-1.42;100.00;98066.67;67503;1283;1016345;-70
2023/11/27 05:40:26;;;;;;;;;;;;;;;-1.29;100.00;98063.80;67483;1283;1016443;-70
2023/11/27 05:43:31;;;;;;;;;;;;;;;-1.30;100.00;98060.89;67516;1283;1017929;-69
2023/11/27 05:46:34;;;;;;;;;;;;;;;-1.34;100.00;98055.16;67521;1283;1016588;-69
2023/11/27 05:49:37;;;;;;;;;;;;;;;-1.35;100.00;98052.62;67492;1283;1016477;-70
2023/11/27 05:52:43;;;;;;;;;;;;;;;-1.38;100.00;98049.61;67555;1283;1016355;-69
2023/11/27 05:55:46;;;;;;;;;;;;;;;-1.32;100.00;98046.89;67533;1282;1018857;-70
2023/11/27 05:58:48;;;;;;;;;;;;;;;-1.40;100.00;98049.48;67540;1283;1016452;-70
2023/11/27 06:01:51;;;;;;;;;;;;;;;-1.46;100.00;98049.30;67500;1282;1016736;-68
2023/11/27 06:04:54;;;;;;;;;;;;;;;-1.50;100.00;98049.21;67490;1283;1018219;-70
2023/11/27 06:07:56;;;;;;;;;;;;;;;-1.49;100.00;98058.27;67525;1282;1016374;-69
2023/11/27 06:10:59;;;;;;;;;;;;;;;-1.40;100.00;98058.59;67536;1283;1016363;-70
2023/11/27 06:14:01;;;;;;;;;;;;;;;-1.46;100.00;98061.63;67477;1282;1017375;-68
2023/11/27 06:17:05;;;;;;;;;;;;;;;-1.46;100.00;98061.30;67486;1283;1016427;-70
2023/11/27 06:20:09;;;;;;;;;;;;;;;-1.32;100.00;98060.11;67486;1282;1016330;-69
2023/11/27 06:23:12;;;;;;;;;;;;;;;-1.30;100.00;98064.48;67469;1283;1016329;-68
2023/11/27 06:26:16;;;;;;;;;;;;;;;-1.23;100.00;98064.66;67528;1283;1016822;-69
2023/11/27 06:29:20;;;;;;;;;;;;;;;-1.21;100.00;98063.59;67543;1282;1016356;-69
2023/11/27 06:32:22;;;;;;;;;;;;;;;-1.17;100.00;98071.39;67503;1282;1016256;-70
2023/11/27 06:35:25;;;;;;;;;;;;;;;-1.15;100.00;98070.63;67521;1282;1016511;-70
2023/11/27 06:38:27;;;;;;;;;;;;;;;-1.07;100.00;98067.87;67482;1282;1016322;-70
2023/11/27 06:41:30;;;;;;;;;;;;;;;-1.02;100.00;98070.30;67510;1282;1016355;-70
2023/11/27 06:44:33;;;;;;;;;;;;;;;-0.90;100.00;98066.02;67530;1282;1016154;-69
2023/11/27 06:47:36;;;;;;;;;;;;;;;-0.87;100.00;98069.90;67488;1282;1017125;-69
2023/11/27 06:50:38;;;;;;;;;;;;;;;-0.82;100.00;98073.06;67525;1283;1016237;-70
2023/11/27 06:53:41;;;;;;;;;;;;;;;-0.85;100.00;98074.84;67506;1283;1016521;-70
2023/11/27 06:56:44;;;;;;;;;;;;;;;-0.81;100.00;98077.83;67508;1283;1016428;-70
2023/11/27 06:59:46;;;;;;;;;;;;;;;-0.72;100.00;98075.33;67554;1283;1018741;-70
2023/11/27 07:02:49;;;;;;;;;;;;;;;-0.67;100.00;98074.17;67510;1283;1016373;-69
2023/11/27 07:05:51;;;;;;;;;;;;;;;-0.64;100.00;98071.52;67488;1282;1017945;-70
2023/11/27 07:08:54;;;;;;;;;;;;;;;-0.66;100.00;98070.38;67488;1283;1018844;-70
2023/11/27 07:11:58;;;;;;;;;;;;;;;-0.53;100.00;98069.17;67546;1282;1016813;-70
2023/11/27 07:15:00;;;;;;;;;;;;;;;-0.50;100.00;98067.00;67509;1282;1016454;-70
2023/11/27 07:18:03;;;;;;;;;;;;;;;-0.45;100.00;98071.02;67571;1282;1016602;-70
2023/11/27 07:21:06;;;;;;;;;;;;;;;-0.37;100.00;98070.23;67497;1282;1015901;-70
2023/11/27 07:24:09;;;;;;;;;;;;;;;-0.25;100.00;98069.73;67530;1283;1016524;-70
2023/11/27 07:27:15;;;;;;;;;;;;;;;-0.06;100.00;98068.48;67519;1282;1016404;-70
2023/11/27 07:30:18;;;;;;;;;;;;;;;0.10;100.00;98075.56;67475;1282;1016502;-70
2023/11/27 07:33:22;;;;;;;;;;;;;;;0.17;100.00;98083.27;67509;1283;1015762;-69
2023/11/27 07:36:27;;;;;;;;;;;;;;;0.27;100.00;98086.55;67525;1283;1016410;-69
2023/11/27 07:39:29;;;;;;;;;;;;;;;0.35;100.00;98086.33;67517;1282;1016623;-70
2023/11/27 07:42:32;;;;;;;;;;;;;;;0.39;100.00;98089.11;67500;1282;1016400;-70
2023/11/27 07:45:35;;;;;;;;;;;;;;;0.51;100.00;98081.86;67530;1282;1016451;-69
2023/11/27 07:48:37;;;;;;;;;;;;;;;0.65;100.00;98077.46;67502;1283;1016511;-69
2023/11/27 07:51:40;;;;;;;;;;;;;;;0.57;100.00;98067.04;67484;1283;1016858;-69
2023/11/27 07:54:43;;;;;;;;;;;;;;;0.53;100.00;98063.40;67535;1282;1018052;-70
2023/11/27 07:57:46;;;;;;;;;;;;;;;0.53;100.00;98057.88;67491;1283;1016668;-70
2023/11/27 08:00:50;;;;;;;;;;;;;;;0.60;100.00;98055.39;67478;1283;1016285;-70
2023/11/27 08:03:52;;;;;;;;;;;;;;;0.72;100.00;98057.45;67498;1282;1016718;-70
2023/11/27 08:06:55;;;;;;;;;;;;;;;0.79;100.00;98064.77;67511;1283;1016353;-70
2023/11/27 08:09:58;;;;;;;;;;;;;;;0.81;100.00;98063.33;67496;1283;1016640;-70
2023/11/27 08:13:01;;;;;;;;;;;;;;;0.82;100.00;98066.75;67526;1282;1016569;-70
2023/11/27 08:16:04;;;;;;;;;;;;;;;0.77;100.00;98073.45;67512;1283;1016693;-69
2023/11/27 08:19:06;;;;;;;;;;;;;;;0.77;100.00;98068.27;67495;1282;1016402;-69
2023/11/27 08:22:11;;;;;;;;;;;;;;;0.90;100.00;98064.40;67530;1282;1016405;-70
2023/11/27 08:25:16;;;;;;;;;;;;;;;1.02;100.00;98062.97;67516;1283;1016448;-69
2023/11/27 08:28:21;;;;;;;;;;;;;;;1.14;100.00;98069.09;67512;1283;1016390;-70
2023/11/27 08:31:28;;;;;;;;;;;;;;;1.18;100.00;98065.16;67524;1282;1016459;-69
2023/11/27 08:34:31;;;;;;;;;;;;;;;1.33;100.00;98057.56;67538;1282;1016212;-70
2023/11/27 08:37:35;;;;;;;;;;;;;;;1.56;100.00;98058.98;67525;1283;1016824;-69
2023/11/27 08:40:38;;;;;;;;;;;;;;;1.71;100.00;98054.11;67497;1283;1016164;-69
2023/11/27 08:43:41;;;;;;;;;;;;;;;1.88;100.00;98055.39;67532;1283;1016493;-70
2023/11/27 08:46:46;;;;;;;;;;;;;;;1.86;100.00;98056.67;67499;1282;1015999;-70
2023/11/27 08:49:48;;;;;;;;;;;;;;;1.93;100.00;98052.11;67504;1282;1018084;-69
2023/11/27 08:52:51;;;;;;;;;;;;;;;2.13;100.00;98046.84;67513;1283;1016448;-69
2023/11/27 08:55:55;;;;;;;;;;;;;;;2.24;100.00;98049.16;67489;1283;1016400;-69
2023/11/27 08:58:58;;;;;;;;;;;;;;;2.25;100.00;98059.14;67524;1282;1016819;-69
2023/11/27 09:02:01;;;;;;;;;;;;;;;2.34;100.00;98059.81;67490;1282;1016455;-69
2023/11/27 09:05:04;;;;;;;;;;;;;;;2.48;100.00;98057.90;67531;1282;1016382;-69
2023/11/27 09:08:07;;;;;;;;;;;;;;;2.49;100.00;98059.04;67527;1283;1016185;-69
2023/11/27 09:11:11;;;;;;;;;;;;;;;2.63;100.00;98062.64;67533;1282;1016503;-70
2023/11/27 09:14:14;;;;;;;;;;;;;;;2.51;100.00;98069.17;67555;1283;1016460;-69
2023/11/27 09:17:16;;;;;;;;;;;;;;;2.49;100.00;98066.81;67524;1283;1015903;-69
2023/11/27 09:20:19;;;;;;;;;;;;;;;2.50;100.00;98059.87;67515;1283;1018111;-70
2023/11/27 09:23:21;;;;;;;;;;;;;;;2.64;100.00;98060.85;67536;1283;1016396;-70
2023/11/27 09:26:24;;;;;;;;;;;;;;;2.78;100.00;98065.65;67534;1283;1017730;-70
2023/11/27 09:29:27;;;;;;;;;;;;;;;2.75;100.00;98062.48;67494;1283;1016260;-70
2023/11/27 09:32:29;;;;;;;;;;;;;;;2.71;100.00;98065.92;67515;1282;1019375;-70
2023/11/27 09:35:32;;;;;;;;;;;;;;;2.64;100.00;98059.33;67549;1283;1016309;-69
2023/11/27 09:38:35;;;;;;;;;;;;;;;2.56;100.00;98061.20;67512;1283;1016383;-69
2023/11/27 09:41:37;;;;;;;;;;;;;;;2.51;100.00;98059.33;67491;1283;1016036;-69
2023/11/27 09:44:40;;;;;;;;;;;;;;;2.42;100.00;98055.19;67542;1283;1016147;-69
2023/11/27 09:47:44;;;;;;;;;;;;;;;2.22;100.00;98061.16;67556;1283;1018812;-69
2023/11/27 09:50:46;;;;;;;;;;;;;;;2.22;100.00;98056.31;67545;1283;1016553;-69
2023/11/27 09:53:50;;;;;;;;;;;;;;;2.20;100.00;98049.00;67499;1282;1016356;-69
2023/11/27 09:56:53;;;;;;;;;;;;;;;2.12;100.00;98051.71;67513;1283;1016353;-70
2023/11/27 09:59:56;;;;;;;;;;;;;;;2.17;100.00;98045.33;67547;1283;1016787;-69
2023/11/27 10:02:59;;;;;;;;;;;;;;;2.19;100.00;98049.19;67505;1283;1016221;-69
2023/11/27 10:06:02;;;;;;;;;;;;;;;2.12;100.00;98048.44;67541;1283;1016237;-69
2023/11/27 10:09:08;;;;;;;;;;;;;;;2.14;100.00;98039.38;67533;1283;1016927;-69
2023/11/27 10:12:12;;;;;;;;;;;;;;;2.11;100.00;98045.02;67544;1282;1016457;-69
2023/11/27 10:15:16;;;;;;;;;;;;;;;2.18;100.00;98045.25;67523;1282;1016883;-69
2023/11/27 10:18:19;;;;;;;;;;;;;;;2.04;100.00;98043.05;67535;1283;1016425;-69
2023/11/27 10:21:21;;;;;;;;;;;;;;;1.91;100.00;98040.27;67565;1282;1016247;-70
2023/11/27 10:24:24;;;;;;;;;;;;;;;2.11;100.00;98031.73;67521;1283;1016505;-69
2023/11/27 10:27:31;;;;;;;;;;;;;;;2.27;100.00;98026.45;67535;1283;1016407;-69
2023/11/27 10:30:34;;;;;;;;;;;;;;;2.22;100.00;98024.60;67511;1283;1016499;-70
2023/11/27 10:33:36;;;;;;;;;;;;;;;2.19;100.00;98025.07;67521;1283;1016540;-70
2023/11/27 10:36:39;;;;;;;;;;;;;;;2.22;100.00;98022.31;67540;1283;1016742;-70
2023/11/27 10:39:42;;;;;;;;;;;;;;;2.11;100.00;98028.81;67566;1283;1016183;-69
2023/11/27 10:42:47;;;;;;;;;;;;;;;2.13;100.00;98023.91;67533;1283;1016323;-69
2023/11/27 10:45:54;;;;;;;;;;;;;;;2.24;100.00;98021.23;67544;1282;1016685;-70
2023/11/27 10:48:58;;;;;;;;;;;;;;;2.25;100.00;98011.55;67560;1283;1016418;-69
2023/11/27 10:52:01;;;;;;;;;;;;;;;2.42;100.00;98011.89;67519;1283;1016504;-70
2023/11/27 10:55:05;;;;;;;;;;;;;;;2.49;100.00;98013.14;67533;1283;1017174;-69
2023/11/27 10:58:09;;;;;;;;;;;;;;;2.52;100.00;98006.46;67568;1283;1016465;-69
2023/11/27 11:01:12;;;;;;;;;;;;;;;2.64;100.00;97999.95;67576;1283;1016005;-69
2023/11/27 11:04:16;;;;;;;;;;;;;;;2.63;100.00;98000.34;67537;1283;1018599;-69
2023/11/27 11:07:19;;;;;;;;;;;;;;;2.49;100.00;98005.89;67543;1283;1016330;-69
2023/11/27 11:10:26;;;;;;;;;;;;;;;2.50;100.00;98006.74;67555;1283;1017288;-69
2023/11/27 11:13:30;;;;;;;;;;;;;;;2.57;100.00;97996.95;67537;1283;1016242;-70
2023/11/27 11:16:32;;;;;;;;;;;;;;;2.65;100.00;97990.22;67593;1283;1018003;-69
2023/11/27 11:19:35;;;;;;;;;;;;;;;2.57;100.00;97989.34;67544;1283;1016444;-69
2023/11/27 11:22:38;;;;;;;;;;;;;;;2.67;100.00;97986.54;67566;1283;1018641;-70
2023/11/27 11:25:41;;;;;;;;;;;;;;;2.76;100.00;97979.39;67572;1283;1017381;-70
2023/11/27 11:28:48;;;;;;;;;;;;;;;2.83;100.00;97972.73;67578;1283;1016459;-70
2023/11/27 11:31:51;;;;;;;;;;;;;;;2.87;100.00;97970.31;67534;1283;1020059;-70
2023/11/27 11:34:54;;;;;;;;;;;;;;;2.68;100.00;97969.19;67562;1283;1016335;-69
2023/11/27 11:37:57;;;;;;;;;;;;;;;2.73;100.00;97964.00;67566;1283;1016219;-69
2023/11/27 11:40:59;;;;;;;;;;;;;;;2.75;100.00;97960.60;67526;1283;1018149;-70
2023/11/27 11:44:02;;;;;;;;;;;;;;;2.86;100.00;97963.78;67530;1282;1016268;-68
2023/11/27 11:47:08;;;;;;;;;;;;;;;2.71;100.00;97955.77;67541;1283;1015799;-69
2023/11/27 11:50:10;;;;;;;;;;;;;;;2.92;100.00;97954.73;67544;1283;1015814;-70
2023/11/27 11:53:18;;;;;;;;;;;;;;;2.84;100.00;97949.71;67533;1283;1016488;-69
2023/11/27 11:56:22;;;;;;;;;;;;;;;2.89;100.00;97944.84;67554;1283;1016287;-69
2023/11/27 11:59:28;;;;;;;;;;;;;;;3.05;100.00;97942.05;67546;1283;1016427;-69
2023/11/27 12:02:31;;;;;;;;;;;;;;;3.10;100.00;97942.20;67543;1283;1016473;-70
2023/11/27 12:05:34;;;;;;;;;;;;;;;2.97;100.00;97945.87;67526;1282;1016131;-69
2023/11/27 12:08:37;;;;;;;;;;;;;;;2.97;100.00;97946.21;67533;1283;1016250;-70
2023/11/27 12:11:39;;;;;;;;;;;;;;;3.06;100.00;97942.35;67532;1283;1016265;-69
2023/11/27 12:14:42;;;;;;;;;;;;;;;3.06;100.00;97942.34;67552;1283;1016105;-69
2023/11/27 12:17:46;;;;;;;;;;;;;;;2.98;100.00;97938.05;67553;1283;1016240;-69
2023/11/27 12:20:48;;;;;;;;;;;;;;;3.05;100.00;97940.52;67500;1283;1016326;-69
2023/11/27 12:23:52;;;;;;;;;;;;;;;3.05;100.00;97942.40;67536;1282;1017111;-69
2023/11/27 12:26:54;;;;;;;;;;;;;;;2.93;100.00;97942.56;67508;1282;1016082;-70
2023/11/27 12:29:57;;;;;;;;;;;;;;;2.95;100.00;97935.77;67538;1283;1016584;-69
2023/11/27 12:33:04;;;;;;;;;;;;;;;2.85;100.00;97941.34;67553;1283;1016467;-69
2023/11/27 12:36:07;;;;;;;;;;;;;;;2.91;100.00;97938.02;67533;1283;1016128;-69
2023/11/27 12:39:11;;;;;;;;;;;;;;;3.04;100.00;97936.58;67577;1283;1016229;-70
2023/11/27 12:42:14;;;;;;;;;;;;;;;3.04;100.00;97945.53;67544;1283;1017348;-70
2023/11/27 12:45:20;;;;;;;;;;;;;;;2.90;100.00;97948.25;67534;1283;1016002;-70
2023/11/27 12:48:23;;;;;;;;;;;;;;;2.75;100.00;97941.48;67571;1283;1016067;-68
2023/11/27 12:51:29;;;;;;;;;;;;;;;2.60;100.00;97941.23;67542;1283;1017361;-69
2023/11/27 12:54:35;;;;;;;;;;;;;;;2.82;100.00;97944.10;67551;1283;1016488;-70
2023/11/27 12:57:37;;;;;;;;;;;;;;;2.64;100.00;97941.23;67595;1283;1016374;-69
2023/11/27 13:00:43;;;;;;;;;;;;;;;2.66;100.00;97942.38;67576;1283;1016128;-69
2023/11/27 13:03:47;;;;;;;;;;;;;;;2.54;100.00;97940.12;67562;1283;1016382;-69
2023/11/27 13:06:57;;;;;;;;;;;;;;;2.70;100.00;97930.78;67547;1283;1016458;-70
2023/11/27 13:10:08;;;;;;;;;;;;;;;2.74;100.00;97925.80;67559;1283;1016497;-69
2023/11/27 13:13:11;;;;;;;;;;;;;;;2.71;100.00;97921.58;67556;1283;1016589;-68
2023/11/27 13:16:17;;;;;;;;;;;;;;;2.68;100.00;97917.27;67569;1283;1016383;-68
2023/11/27 13:19:22;;;;;;;;;;;;;;;2.61;100.00;97912.70;67563;1283;1016489;-69
2023/11/27 13:22:31;;;;;;;;;;;;;;;2.56;100.00;97913.44;67540;1283;1016351;-69
2023/11/27 13:25:35;;;;;;;;;;;;;;;2.61;100.00;97913.22;67583;1283;1018450;-69
2023/11/27 13:28:42;;;;;;;;;;;;;;;2.69;100.00;97912.53;67573;1283;1016975;-69
2023/11/27 13:31:45;;;;;;;;;;;;;;;2.65;100.00;97906.84;67549;1283;1016447;-69
2023/11/27 13:34:56;;;;;;;;;;;;;;;2.59;100.00;97900.90;67566;1283;1016861;-69
2023/11/27 13:38:00;;;;;;;;;;;;;;;2.74;100.00;97898.86;67555;1283;1016421;-69
2023/11/27 13:41:03;;;;;;;;;;;;;;;2.78;100.00;97897.48;67529;1283;1016623;-69
2023/11/27 13:44:07;;;;;;;;;;;;;;;2.84;100.00;97895.14;67567;1283;1016386;-69
2023/11/27 13:47:16;;;;;;;;;;;;;;;2.88;100.00;97897.88;67567;1283;1016366;-70
2023/11/27 13:50:19;;;;;;;;;;;;;;;2.80;100.00;97897.89;67569;1283;1019184;-69
2023/11/27 13:53:24;;;;;;;;;;;;;;;2.91;100.00;97897.92;67577;1283;1019004;-70
2023/11/27 13:56:30;;;;;;;;;;;;;;;2.87;100.00;97898.97;67569;1283;1016465;-69
2023/11/27 13:59:36;;;;;;;;;;;;;;;2.92;100.00;97903.58;67551;1283;1016414;-69
2023/11/27 14:02:38;;;;;;;;;;;;;;;2.93;100.00;97905.80;67565;1283;1016269;-70
2023/11/27 14:05:43;;;;;;;;;;;;;;;2.91;100.00;97907.61;67557;1283;1016376;-69
2023/11/27 14:08:51;;;;;;;;;;;;;;;2.84;100.00;97906.20;67523;1283;1016199;-69
2023/11/27 14:11:56;;;;;;;;;;;;;;;2.77;100.00;97901.67;67544;1283;1016194;-69
2023/11/27 14:15:21;;;;;;;;;;;;;;;2.70;100.00;97902.33;67538;1283;1016118;-70
2023/11/27 14:18:49;;;;;;;;;;;;;;;2.67;100.00;97900.72;67541;1283;1016312;-70
2023/11/27 14:25:30;;;;;;;;;;;;;;;2.75;100.00;97892.40;67571;1283;1016396;-69
2023/11/27 14:28:56;;;;;;;;;;;;;;;2.77;100.00;97882.84;67586;1283;1016501;-69
2023/11/27 14:31:57;;;;;;;;;;;;;;;2.71;100.00;97879.64;67560;1283;1016268;-69
2023/11/27 14:34:59;;;;;;;;;;;;;;;2.81;100.00;97877.68;67512;1283;1016496;-70
2023/11/27 14:38:05;;;;;;;;;;;;;;;2.74;100.00;97876.59;67544;1283;1016261;-70
2023/11/27 14:41:08;;;;;;;;;;;;;;;2.78;100.00;97871.21;67513;1283;1018690;-69
2023/11/27 14:44:13;;;;;;;;;;;;;;;2.67;100.00;97866.89;67572;1283;1018186;-69
2023/11/27 14:47:17;;;;;;;;;;;;;;;2.54;100.00;97861.05;67522;1283;1016438;-70
2023/11/27 14:50:27;;;;;;;;;;;;;;;2.62;100.00;97852.77;67518;1283;1016340;-69
2023/11/27 14:53:30;;;;;;;;;;;;;;;2.70;100.00;97851.38;67580;1283;1018033;-69
2023/11/27 14:56:33;;;;;;;;;;;;;;;2.84;100.00;97848.86;67584;1283;1016316;-69
2023/11/27 14:59:35;;;;;;;;;;;;;;;2.76;100.00;97844.74;67586;1283;1016543;-70
2023/11/27 15:02:42;;;;;;;;;;;;;;;2.63;100.00;97837.55;67533;1283;1016819;-69
2023/11/27 15:05:44;;;;;;;;;;;;;;;2.72;100.00;97835.25;67544;1283;1016415;-70
2023/11/27 15:08:47;;;;;;;;;;;;;;;2.70;100.00;97830.67;67568;1283;1016506;-70
2023/11/27 15:11:51;;;;;;;;;;;;;;;2.70;100.00;97824.12;67547;1283;1016387;-69
2023/11/27 15:14:54;;;;;;;;;;;;;;;2.70;100.00;97822.06;67561;1283;1016115;-69
2023/11/27 15:17:57;;;;;;;;;;;;;;;2.70;100.00;97819.61;67538;1283;1016342;-70
2023/11/27 15:20:59;;;;;;;;;;;;;;;2.85;100.00;97810.66;64982;1282;6426062;-69
2023/11/27 15:24:03;;;;;;;;;;;;;;;2.91;100.00;97805.35;67569;1282;1016431;-70
2023/11/27 15:27:06;;;;;;;;;;;;;;;2.92;100.00;97802.59;67563;1283;1016125;-69
2023/11/27 15:30:09;;;;;;;;;;;;;;;2.99;100.00;97797.92;67527;1282;1016500;-70